Time;durP1;ratioP1;P1;durP2;ratioP2;P2;SDS_P1;SDS_P2;PMS_P1;PMS_P2;Temp;Humidity;BMP_temperature;BMP_pressure;BME280_temperature;BME280_humidity;BME280_pressure;Samples;Min_cycle;Max_cycle;Signal;HPM_P1;HPM_P2
2023/12/12 00:00:29;;;;;;;11.90;4.60;;;4.70;99.90;;;;;;5029323;28;20103;-51
2023/12/12 00:02:59;;;;;;;11.68;4.28;;;5.40;99.90;;;;;;5028513;28;20034;-51
2023/12/12 00:05:25;;;;;;;12.18;4.45;;;5.00;99.90;;;;;;5031336;28;20061;-51
2023/12/12 00:07:50;;;;;;;11.52;4.45;;;5.50;99.90;;;;;;5029241;28;20409;-52
2023/12/12 00:10:16;;;;;;;11.30;4.50;;;5.30;99.90;;;;;;5030796;28;20572;-48
2023/12/12 00:12:43;;;;;;;14.15;5.10;;;5.60;99.90;;;;;;5026469;28;20048;-49
2023/12/12 00:15:09;;;;;;;13.00;4.78;;;5.60;99.90;;;;;;5029359;28;20045;-50
2023/12/12 00:17:35;;;;;;;11.05;4.38;;;5.70;99.90;;;;;;5028823;28;20119;-51
2023/12/12 00:20:01;;;;;;;11.82;4.85;;;5.70;99.90;;;;;;5030853;28;20041;-48
2023/12/12 00:22:27;;;;;;;9.60;4.00;;;5.70;99.90;;;;;;5027265;28;20052;-52
2023/12/12 00:24:52;;;;;;;16.90;4.70;;;5.40;99.90;;;;;;5030958;28;20041;-53
2023/12/12 00:27:18;;;;;;;11.50;4.32;;;5.00;99.90;;;;;;5026552;28;20034;-53
2023/12/12 00:29:45;;;;;;;12.48;4.13;;;5.50;99.90;;;;;;5028571;28;20040;-49
2023/12/12 00:32:11;;;;;;;11.38;4.70;;;5.60;99.90;;;;;;5030718;28;20539;-50
2023/12/12 00:34:37;;;;;;;11.55;4.00;;;5.70;99.90;;;;;;5030678;28;20097;-50
2023/12/12 00:37:03;;;;;;;15.52;4.85;;;5.90;99.90;;;;;;5029261;28;20050;-52
2023/12/12 00:39:29;;;;;;;10.98;4.20;;;5.50;99.90;;;;;;5030836;28;20124;-51
2023/12/12 00:41:55;;;;;;;11.70;4.88;;;6.00;99.90;;;;;;5028726;28;20124;-51
2023/12/12 00:44:20;;;;;;;10.18;4.38;;;5.50;99.90;;;;;;5029545;28;20552;-51
2023/12/12 00:46:46;;;;;;;13.32;4.50;;;5.30;99.90;;;;;;5030423;28;20076;-52
2023/12/12 00:49:12;;;;;;;14.30;4.43;;;5.40;99.90;;;;;;5030129;28;20121;-51
2023/12/12 00:51:37;;;;;;;12.85;4.57;;;5.40;99.90;;;;;;5030704;28;20045;-52
2023/12/12 00:54:04;;;;;;;11.45;4.20;;;5.50;99.90;;;;;;5026514;28;20552;-51
2023/12/12 00:56:30;;;;;;;14.25;3.95;;;5.80;99.90;;;;;;5029152;28;20120;-49
2023/12/12 00:58:55;;;;;;;14.73;4.00;;;5.70;99.90;;;;;;5030305;28;20172;-51
2023/12/12 01:01:21;;;;;;;14.35;4.82;;;6.30;99.90;;;;;;5030381;28;20037;-49
2023/12/12 01:03:47;;;;;;;14.43;4.82;;;6.10;99.90;;;;;;5030885;28;20374;-48
2023/12/12 01:06:23;;;;;;;25.48;5.60;;;5.60;99.90;;;;;;5030235;28;20041;-50
2023/12/12 01:08:49;;;;;;;14.10;5.10;;;6.30;99.90;;;;;;5030689;28;20497;-52
2023/12/12 01:11:15;;;;;;;15.80;4.57;;;5.50;99.90;;;;;;5030287;28;20088;-47
2023/12/12 01:13:40;;;;;;;14.45;5.35;;;6.30;99.90;;;;;;5026686;28;20121;-49
2023/12/12 01:16:06;;;;;;;18.83;4.85;;;6.00;99.90;;;;;;5028206;28;20708;-51
2023/12/12 01:18:32;;;;;;;18.90;5.28;;;5.50;99.90;;;;;;5028265;28;20535;-48
2023/12/12 01:20:58;;;;;;;17.08;6.40;;;6.60;99.90;;;;;;5030274;28;20476;-51
2023/12/12 01:23:23;;;;;;;16.85;6.32;;;6.30;99.90;;;;;;5034045;28;20485;-50
2023/12/12 01:25:49;;;;;;;26.35;7.65;;;6.30;99.90;;;;;;5033974;28;20064;-49
2023/12/12 01:28:15;;;;;;;26.02;7.72;;;6.40;99.90;;;;;;5034140;28;20033;-52
2023/12/12 01:30:40;;;;;;;21.67;7.47;;;5.40;99.90;;;;;;5033517;28;20037;-50
2023/12/12 01:33:06;;;;;;;24.05;8.25;;;5.60;99.90;;;;;;5034084;28;20056;-50
2023/12/12 01:35:32;;;;;;;27.23;8.00;;;5.60;99.90;;;;;;5033238;28;20087;-49
2023/12/12 01:37:57;;;;;;;26.85;8.40;;;5.90;99.90;;;;;;5032870;28;20075;-48
2023/12/12 01:40:23;;;;;;;22.85;8.70;;;6.70;99.90;;;;;;5033589;28;20045;-49
2023/12/12 01:42:49;;;;;;;25.15;9.82;;;5.70;99.90;;;;;;5034138;28;20033;-51
2023/12/12 01:45:15;;;;;;;25.75;9.85;;;6.20;99.90;;;;;;5033426;28;20053;-49
2023/12/12 01:47:40;;;;;;;26.70;9.23;;;6.60;99.90;;;;;;5033390;28;20095;-52
2023/12/12 01:50:07;;;;;;;36.47;12.05;;;6.70;99.90;;;;;;5033945;28;20037;-52
2023/12/12 01:52:34;;;;;;;34.90;10.88;;;5.80;99.90;;;;;;5033534;28;20522;-50
2023/12/12 01:55:00;;;;;;;36.70;11.18;;;5.80;99.90;;;;;;5030256;28;20110;-47
2023/12/12 01:57:26;;;;;;;29.45;10.32;;;6.90;99.90;;;;;;5028311;28;20474;-49
2023/12/12 01:59:53;;;;;;;28.02;10.43;;;6.20;99.90;;;;;;5031674;28;20044;-50
2023/12/12 02:02:19;;;;;;;34.08;10.25;;;6.40;99.90;;;;;;5033418;28;20400;-53
2023/12/12 02:04:48;;;;;;;32.53;10.43;;;6.60;99.90;;;;;;5033272;28;20398;-51
2023/12/12 02:07:14;;;;;;;37.38;12.02;;;6.30;99.90;;;;;;5033343;28;20521;-48
2023/12/12 02:09:40;;;;;;;40.20;11.73;;;6.40;99.90;;;;;;5033223;28;20126;-50
2023/12/12 02:12:06;;;;;;;34.88;10.88;;;6.30;99.90;;;;;;5032318;28;20088;-53
2023/12/12 02:14:33;;;;;;;35.55;11.32;;;6.60;99.90;;;;;;5033018;28;20056;-51
2023/12/12 02:16:59;;;;;;;36.85;11.77;;;5.70;99.90;;;;;;5030408;28;20077;-48
2023/12/12 02:19:24;;;;;;;48.17;11.38;;;6.50;99.90;;;;;;5032876;28;20104;-49
2023/12/12 02:21:50;;;;;;;47.05;11.65;;;6.70;99.90;;;;;;5032915;28;20041;-49
2023/12/12 02:24:16;;;;;;;47.03;11.68;;;6.30;99.90;;;;;;5033103;28;20045;-52
2023/12/12 02:26:41;;;;;;;47.40;12.35;;;6.80;99.90;;;;;;5032897;28;20366;-47
2023/12/12 02:29:08;;;;;;;48.20;12.70;;;6.70;99.90;;;;;;5032887;28;20083;-50
2023/12/12 02:31:33;;;;;;;45.15;12.82;;;6.50;99.90;;;;;;5032617;28;20091;-50
2023/12/12 02:33:59;;;;;;;38.10;12.25;;;6.90;99.90;;;;;;5031469;28;20037;-51
2023/12/12 02:36:25;;;;;;;46.40;13.48;;;6.80;99.90;;;;;;5031167;28;20499;-49
2023/12/12 02:38:50;;;;;;;49.17;13.60;;;6.10;99.90;;;;;;5031418;28;20099;-48
2023/12/12 02:41:16;;;;;;;46.00;13.07;;;6.90;99.90;;;;;;5032321;28;20124;-52
2023/12/12 02:43:42;;;;;;;41.92;12.90;;;6.70;99.90;;;;;;5027093;28;20037;-52
2023/12/12 02:46:07;;;;;;;53.55;12.50;;;7.00;99.90;;;;;;5030008;28;20045;-51
2023/12/12 02:48:33;;;;;;;44.05;13.23;;;6.40;99.90;;;;;;5031826;28;20072;-50
2023/12/12 02:50:59;;;;;;;40.63;13.80;;;6.20;99.90;;;;;;5031656;28;20038;-52
2023/12/12 02:53:24;;;;;;;55.10;13.00;;;6.20;99.90;;;;;;5032392;28;20033;-49
2023/12/12 02:55:50;;;;;;;52.08;13.48;;;6.20;99.90;;;;;;5031049;28;20037;-49
2023/12/12 02:58:16;;;;;;;57.33;13.77;;;6.10;99.90;;;;;;5032477;28;20056;-51
2023/12/12 03:00:41;;;;;;;54.30;12.90;;;6.70;99.90;;;;;;5032147;28;20033;-47
2023/12/12 03:03:07;;;;;;;52.08;12.25;;;6.70;99.90;;;;;;5031120;28;20056;-49
2023/12/12 03:05:32;;;;;;;44.67;12.32;;;6.00;99.90;;;;;;5030987;28;20045;-51
2023/12/12 03:07:58;;;;;;;45.17;12.88;;;7.00;99.90;;;;;;5032195;28;20469;-48
2023/12/12 03:10:24;;;;;;;49.47;13.23;;;6.20;99.90;;;;;;5031660;28;20382;-52
2023/12/12 03:12:49;;;;;;;49.20;13.73;;;7.00;99.90;;;;;;5030045;28;20135;-49
2023/12/12 03:15:15;;;;;;;49.90;13.45;;;6.90;99.90;;;;;;5031945;28;20045;-46
2023/12/12 03:17:41;;;;;;;48.78;13.50;;;6.10;99.90;;;;;;5031107;28;20496;-51
2023/12/12 03:20:07;;;;;;;48.88;13.57;;;7.00;99.90;;;;;;5031754;28;20045;-51
2023/12/12 03:22:33;;;;;;;49.38;13.00;;;6.20;99.90;;;;;;5031176;28;20037;-50
2023/12/12 03:25:00;;;;;;;61.45;13.90;;;6.30;99.90;;;;;;5031703;28;20157;-48
2023/12/12 03:27:25;;;;;;;55.97;14.27;;;6.30;99.90;;;;;;5025993;28;20056;-52
2023/12/12 03:29:51;;;;;;;54.45;14.02;;;6.30;99.90;;;;;;5011685;28;20042;-52
2023/12/12 03:32:17;;;;;;;50.15;13.88;;;6.40;99.90;;;;;;5030306;28;20041;-52
2023/12/12 03:34:42;;;;;;;58.75;13.82;;;7.40;99.90;;;;;;5031565;28;20036;-50
2023/12/12 03:37:08;;;;;;;63.42;15.52;;;7.20;99.90;;;;;;5031228;28;20049;-49
2023/12/12 03:39:35;;;;;;;55.63;14.48;;;7.00;99.90;;;;;;5030446;28;20072;-49
2023/12/12 03:42:01;;;;;;;51.45;14.38;;;6.20;99.90;;;;;;5031230;28;20405;-51
2023/12/12 03:44:26;;;;;;;50.97;14.60;;;7.40;99.90;;;;;;5030487;28;20082;-50
2023/12/12 03:46:52;;;;;;;66.28;28.30;;;6.40;99.90;;;;;;5030922;28;20102;-49
2023/12/12 03:49:18;;;;;;;62.10;14.18;;;6.60;99.90;;;;;;5030393;28;20056;-51
2023/12/12 03:51:43;;;;;;;48.35;13.80;;;7.20;99.90;;;;;;5028196;28;20645;-50
2023/12/12 03:54:09;;;;;;;54.08;13.52;;;7.10;99.90;;;;;;5030083;28;20396;-51
2023/12/12 03:56:35;;;;;;;53.30;13.77;;;7.10;99.90;;;;;;5030472;28;20048;-49
2023/12/12 03:59:01;;;;;;;55.08;14.55;;;6.60;99.90;;;;;;5030402;28;20061;-49
2023/12/12 04:01:26;;;;;;;61.70;15.35;;;6.70;99.90;;;;;;5030774;28;20056;-49
2023/12/12 04:03:52;;;;;;;54.13;14.88;;;7.20;99.90;;;;;;5030441;28;20120;-52
2023/12/12 04:06:18;;;;;;;56.00;15.27;;;7.50;99.90;;;;;;5029759;28;20088;-49
2023/12/12 04:08:43;;;;;;;63.25;17.33;;;7.50;99.90;;;;;;5030112;28;20497;-49
2023/12/12 04:11:09;;;;;;;72.65;16.50;;;7.10;99.90;;;;;;5031103;28;20049;-52
2023/12/12 04:13:35;;;;;;;53.78;15.32;;;7.00;99.90;;;;;;5026633;28;20129;-51
2023/12/12 04:16:00;;;;;;;71.13;16.77;;;6.90;99.90;;;;;;5029411;28;20037;-50
2023/12/12 04:18:26;;;;;;;57.40;15.27;;;7.00;99.90;;;;;;5028635;28;20368;-49
2023/12/12 04:20:52;;;;;;;70.22;16.65;;;7.00;99.90;;;;;;5030325;28;20045;-49
2023/12/12 04:23:17;;;;;;;75.18;17.23;;;7.20;99.90;;;;;;5030115;28;20091;-50
2023/12/12 04:25:43;;;;;;;73.43;17.10;;;6.90;99.90;;;;;;5030677;28;20048;-50
2023/12/12 04:28:09;;;;;;;67.38;16.40;;;6.90;99.90;;;;;;5012679;28;20124;-49
2023/12/12 04:30:34;;;;;;;70.28;17.33;;;8.00;99.90;;;;;;5030706;28;20123;-49
2023/12/12 04:33:00;;;;;;;66.95;18.20;;;7.70;99.90;;;;;;5029669;28;20480;-52
2023/12/12 04:35:26;;;;;;;72.82;17.70;;;7.60;99.90;;;;;;5030879;28;20041;-50
2023/12/12 04:37:51;;;;;;;77.65;19.23;;;7.10;99.90;;;;;;5028824;28;20060;-49
2023/12/12 04:40:17;;;;;;;80.50;19.25;;;7.10;99.90;;;;;;5030640;28;20077;-51
2023/12/12 04:42:43;;;;;;;82.25;19.42;;;7.40;99.90;;;;;;5030027;28;20452;-49
2023/12/12 04:45:09;;;;;;;91.22;19.27;;;7.90;99.90;;;;;;5027325;28;20489;-49
2023/12/12 04:47:34;;;;;;;85.30;21.42;;;7.70;99.90;;;;;;5029992;28;20041;-47
2023/12/12 04:50:00;;;;;;;94.47;21.25;;;7.20;99.90;;;;;;5030620;28;20037;-49
2023/12/12 04:52:27;;;;;;;87.22;22.67;;;6.90;99.90;;;;;;5030061;28;20037;-49
2023/12/12 04:54:53;;;;;;;92.35;22.83;;;7.40;99.90;;;;;;5030325;28;20046;-49
2023/12/12 04:57:19;;;;;;;101.25;24.42;;;7.70;99.90;;;;;;5028166;28;20438;-50
2023/12/12 04:59:45;;;;;;;99.70;24.05;;;7.80;99.90;;;;;;5034609;28;20098;-49
2023/12/12 05:02:10;;;;;;;102.72;24.98;;;7.20;99.90;;;;;;5032901;28;20120;-50
2023/12/12 05:04:37;;;;;;;92.85;24.20;;;7.70;99.90;;;;;;5033848;28;20404;-50
2023/12/12 05:07:04;;;;;;;105.55;25.25;;;7.20;99.90;;;;;;5033989;28;20049;-50
2023/12/12 05:09:29;;;;;;;106.13;25.50;;;7.30;99.90;;;;;;5034628;28;20033;-49
2023/12/12 05:11:55;;;;;;;105.80;26.83;;;7.10;99.90;;;;;;5034726;28;20033;-49
2023/12/12 05:14:21;;;;;;;106.28;27.40;;;7.40;99.90;;;;;;5034435;28;20037;-50
2023/12/12 05:16:47;;;;;;;101.38;28.83;;;7.60;99.90;;;;;;5034292;28;20038;-52
2023/12/12 05:19:12;;;;;;;119.80;28.45;;;7.20;99.90;;;;;;5032135;28;20056;-48
2023/12/12 05:21:38;;;;;;;115.22;29.85;;;7.90;99.90;;;;;;5033727;28;20042;-48
2023/12/12 05:24:05;;;;;;;111.68;29.73;;;7.30;99.90;;;;;;5033675;28;20040;-50
2023/12/12 05:26:31;;;;;;;105.88;29.58;;;7.10;99.90;;;;;;5033807;28;20041;-49
2023/12/12 05:28:58;;;;;;;115.78;31.25;;;7.20;99.90;;;;;;5033132;28;20374;-49
2023/12/12 05:31:24;;;;;;;108.68;31.38;;;7.00;99.90;;;;;;5033780;28;20373;-48
2023/12/12 05:33:49;;;;;;;108.03;30.38;;;7.50;99.90;;;;;;5033382;28;20040;-51
2023/12/12 05:36:15;;;;;;;112.15;29.83;;;7.90;99.90;;;;;;5033706;28;20566;-51
2023/12/12 05:38:41;;;;;;;113.93;31.75;;;7.20;99.90;;;;;;5015450;28;20037;-50
2023/12/12 05:41:06;;;;;;;103.07;30.50;;;7.60;99.90;;;;;;5033763;28;20051;-52
2023/12/12 05:43:32;;;;;;;96.97;28.88;;;7.90;99.90;;;;;;5028754;28;21585;-49
2023/12/12 05:45:58;;;;;;;101.93;32.75;;;8.00;99.90;;;;;;5033752;28;20069;-49
2023/12/12 05:48:24;;;;;;;114.13;31.88;;;7.90;99.90;;;;;;5032950;28;20469;-47
2023/12/12 05:50:49;;;;;;;103.15;30.63;;;7.40;99.90;;;;;;5031993;28;20265;-50
2023/12/12 05:53:15;;;;;;;105.80;31.75;;;7.80;99.90;;;;;;5033697;28;20045;-50
2023/12/12 05:55:41;;;;;;;109.53;32.22;;;7.30;99.90;;;;;;5033689;28;20120;-49
2023/12/12 05:58:06;;;;;;;111.70;32.40;;;7.90;99.90;;;;;;5031958;28;20037;-50
2023/12/12 06:00:32;;;;;;;102.50;32.95;;;7.10;99.90;;;;;;5033163;28;20374;-50
2023/12/12 06:02:58;;;;;;;106.45;30.73;;;7.80;99.90;;;;;;5033255;28;20041;-50
2023/12/12 06:05:24;;;;;;;96.63;31.05;;;8.30;99.90;;;;;;5032528;28;20180;-49
2023/12/12 06:07:50;;;;;;;103.00;31.48;;;7.60;99.90;;;;;;5031639;28;20045;-50
2023/12/12 06:10:15;;;;;;;94.57;31.20;;;7.90;99.90;;;;;;5032671;28;20037;-51
2023/12/12 06:12:41;;;;;;;90.82;30.40;;;7.10;99.90;;;;;;5033070;28;20030;-50
2023/12/12 06:15:07;;;;;;;100.53;30.40;;;8.20;99.90;;;;;;5031528;28;20048;-49
2023/12/12 06:17:37;;;;;;;85.25;29.00;;;7.70;99.90;;;;;;5031231;28;20046;-49
2023/12/12 06:20:03;;;;;;;80.65;28.60;;;7.00;99.90;;;;;;5028830;28;20058;-48
2023/12/12 06:22:29;;;;;;;87.70;29.15;;;6.90;99.90;;;;;;5032608;28;20492;-51
2023/12/12 06:24:54;;;;;;;86.90;28.00;;;7.20;99.90;;;;;;5032894;28;20033;-51
2023/12/12 06:27:20;;;;;;;91.47;28.30;;;7.50;99.90;;;;;;5027127;28;20045;-49
2023/12/12 06:29:48;;;;;;;85.22;27.77;;;6.90;99.90;;;;;;5030387;28;20046;-50
2023/12/12 06:32:14;;;;;;;89.07;28.05;;;7.40;99.90;;;;;;5032106;28;20045;-50
2023/12/12 06:34:39;;;;;;;75.20;27.20;;;7.10;99.90;;;;;;5031114;28;20092;-52
2023/12/12 06:37:05;;;;;;;79.72;28.00;;;7.30;99.90;;;;;;5032045;28;20042;-52
2023/12/12 06:39:31;;;;;;;77.90;28.50;;;7.20;99.90;;;;;;5032860;28;20037;-48
2023/12/12 06:41:56;;;;;;;76.50;28.23;;;6.50;99.90;;;;;;5032237;28;20114;-51
2023/12/12 06:44:22;;;;;;;75.75;27.45;;;6.60;99.90;;;;;;5032151;28;20393;-49
2023/12/12 06:46:48;;;;;;;76.00;26.65;;;7.00;99.90;;;;;;5031051;28;20134;-50
2023/12/12 06:49:13;;;;;;;75.07;27.88;;;6.80;99.90;;;;;;5030562;28;20038;-47
2023/12/12 06:51:39;;;;;;;69.10;25.48;;;6.80;99.90;;;;;;5031000;28;20044;-47
2023/12/12 06:54:05;;;;;;;72.18;25.58;;;6.20;99.90;;;;;;5031488;28;20473;-50
2023/12/12 06:56:33;;;;;;;65.40;25.48;;;7.00;99.90;;;;;;5031707;28;20073;-49
2023/12/12 06:58:59;;;;;;;73.25;26.05;;;6.80;99.90;;;;;;5031925;28;20128;-50
2023/12/12 07:01:25;;;;;;;77.20;26.70;;;7.00;99.90;;;;;;5027735;28;20137;-51
2023/12/12 07:03:50;;;;;;;71.75;25.48;;;6.70;99.90;;;;;;5030779;28;20048;-47
2023/12/12 07:06:20;;;;;;;74.05;26.17;;;6.20;99.90;;;;;;5032146;28;20037;-48
2023/12/12 07:08:45;;;;;;;81.60;28.83;;;6.00;99.90;;;;;;5031857;28;20469;-49
2023/12/12 07:11:11;;;;;;;77.43;26.10;;;6.20;99.90;;;;;;5031467;28;20034;-52
2023/12/12 07:13:37;;;;;;;77.07;26.30;;;6.60;99.90;;;;;;5025734;28;20045;-50
2023/12/12 07:16:04;;;;;;;81.53;26.95;;;6.90;99.90;;;;;;5031451;28;20045;-51
2023/12/12 07:18:30;;;;;;;82.10;26.90;;;5.90;99.90;;;;;;5028686;28;20421;-51
2023/12/12 07:20:57;;;;;;;83.22;27.83;;;6.30;99.90;;;;;;5029503;28;20051;-49
2023/12/12 07:23:23;;;;;;;79.05;26.65;;;6.70;99.90;;;;;;5028511;28;20634;-50
2023/12/12 07:25:49;;;;;;;71.28;26.75;;;5.60;99.90;;;;;;5030819;28;20049;-52
2023/12/12 07:28:15;;;;;;;69.35;26.67;;;5.70;99.90;;;;;;5030078;28;20077;-49
2023/12/12 07:30:42;;;;;;;83.30;26.25;;;6.30;99.90;;;;;;5030604;28;20551;-50
2023/12/12 07:33:08;;;;;;;85.22;27.52;;;5.70;99.90;;;;;;5029956;28;20041;-49
2023/12/12 07:35:33;;;;;;;92.65;28.77;;;5.90;99.90;;;;;;5029959;28;20531;-51
2023/12/12 07:38:01;;;;;;;91.05;29.17;;;5.70;99.90;;;;;;5030055;28;20041;-50
2023/12/12 07:40:33;;;;;;;88.70;28.95;;;5.90;99.90;;;;;;5087697;28;20385;-52
2023/12/12 07:42:59;;;;;;;89.38;29.40;;;6.50;99.90;;;;;;5087643;28;20381;-51
2023/12/12 07:45:24;;;;;;;93.35;29.17;;;6.40;99.90;;;;;;5087728;28;20399;-51
2023/12/12 07:47:50;;;;;;;92.63;30.10;;;5.70;99.90;;;;;;5087013;28;20086;-51
2023/12/12 07:50:17;;;;;;;83.07;28.50;;;5.40;99.90;;;;;;5087947;28;20048;-50
2023/12/12 07:52:43;;;;;;;80.38;28.95;;;6.30;99.90;;;;;;5087361;28;20122;-52
2023/12/12 07:55:09;;;;;;;94.32;29.95;;;5.40;99.90;;;;;;5086132;28;20048;-52
2023/12/12 07:57:36;;;;;;;86.13;29.02;;;5.60;99.90;;;;;;5084355;28;20041;-53
2023/12/12 08:00:06;;;;;;;88.60;29.58;;;5.80;99.90;;;;;;5085648;28;20043;-51
2023/12/12 08:02:32;;;;;;;96.95;29.40;;;5.60;99.90;;;;;;5085089;28;20036;-53
2023/12/12 08:04:58;;;;;;;98.05;31.33;;;5.40;99.90;;;;;;5086064;28;20119;-50
2023/12/12 08:07:23;;;;;;;89.25;31.23;;;6.40;99.90;;;;;;5083313;28;20131;-51
2023/12/12 08:09:49;;;;;;;96.78;31.38;;;6.40;99.90;;;;;;5086082;28;20036;-50
2023/12/12 08:12:16;;;;;;;91.30;33.67;;;5.30;99.90;;;;;;5085636;28;20040;-52
2023/12/12 08:14:42;;;;;;;92.97;33.40;;;5.70;99.90;;;;;;5085964;28;20071;-49
2023/12/12 08:17:08;;;;;;;98.55;34.28;;;6.20;99.90;;;;;;5086019;28;20098;-51
2023/12/12 08:19:33;;;;;;;99.80;33.17;;;5.30;99.90;;;;;;5085347;28;20123;-53
2023/12/12 08:21:59;;;;;;;92.80;34.40;;;5.50;99.90;;;;;;5086256;28;20034;-51
2023/12/12 08:24:25;;;;;;;124.40;35.60;;;5.70;99.90;;;;;;5084620;28;20226;-51
2023/12/12 08:26:50;;;;;;;114.65;34.67;;;6.10;99.90;;;;;;5086676;28;20087;-51
2023/12/12 08:29:16;;;;;;;109.18;34.75;;;6.50;99.90;;;;;;5085416;28;20040;-51
2023/12/12 08:31:42;;;;;;;116.53;35.47;;;6.30;99.90;;;;;;5086057;28;20043;-52
2023/12/12 08:34:08;;;;;;;122.43;34.13;;;6.10;99.90;;;;;;5086941;28;20097;-50
2023/12/12 08:36:34;;;;;;;115.30;35.05;;;5.90;99.90;;;;;;5086424;28;20037;-51
2023/12/12 08:39:00;;;;;;;103.68;35.42;;;5.40;99.90;;;;;;5086360;28;20048;-53
2023/12/12 08:41:28;;;;;;;108.70;35.38;;;5.80;99.90;;;;;;5077558;28;20156;-52
2023/12/12 08:43:57;;;;;;;109.80;37.95;;;6.50;99.90;;;;;;5077647;28;20320;-50
2023/12/12 08:46:26;;;;;;;97.22;36.40;;;6.00;99.90;;;;;;5078745;28;20117;-51
2023/12/12 08:48:54;;;;;;;116.10;37.35;;;5.70;99.90;;;;;;5077012;28;20044;-52
2023/12/12 08:51:20;;;;;;;112.07;38.83;;;6.40;99.90;;;;;;5068543;28;20119;-54
2023/12/12 08:53:45;;;;;;;104.95;37.75;;;6.50;99.90;;;;;;5062222;28;20127;-53
2023/12/12 08:56:17;;;;;;;120.65;38.78;;;6.10;99.90;;;;;;5062857;28;20033;-51
2023/12/12 08:58:43;;;;;;;119.10;37.70;;;6.30;99.90;;;;;;5064344;28;20032;-48
2023/12/12 09:01:09;;;;;;;137.90;40.47;;;6.40;99.90;;;;;;5065063;28;20110;-50
2023/12/12 09:03:35;;;;;;;127.47;39.50;;;6.70;99.90;;;;;;5061780;28;20653;-52
2023/12/12 09:06:02;;;;;;;129.75;38.92;;;6.60;99.90;;;;;;5063094;28;20292;-51
2023/12/12 09:08:27;;;;;;;122.65;37.70;;;6.10;99.90;;;;;;5060036;28;20108;-53
2023/12/12 09:10:53;;;;;;;121.38;37.63;;;6.80;99.90;;;;;;5062232;28;20116;-49
2023/12/12 09:13:19;;;;;;;125.20;38.35;;;6.70;99.90;;;;;;5062609;28;20028;-51
2023/12/12 09:15:45;;;;;;;133.98;37.35;;;6.00;99.90;;;;;;5063254;28;20040;-49
2023/12/12 09:18:10;;;;;;;128.82;35.75;;;6.20;99.90;;;;;;5061911;28;20041;-53
2023/12/12 09:20:36;;;;;;;112.05;32.72;;;5.90;99.90;;;;;;5061856;28;20052;-53
2023/12/12 09:23:02;;;;;;;110.97;34.40;;;7.10;99.90;;;;;;5064692;28;20026;-53
2023/12/12 09:25:27;;;;;;;105.25;33.20;;;6.00;99.90;;;;;;5063890;28;20068;-52
2023/12/12 09:27:53;;;;;;;107.25;33.13;;;6.70;99.90;;;;;;5063434;28;20385;-53
2023/12/12 09:30:19;;;;;;;111.35;33.97;;;6.00;99.90;;;;;;5062947;28;20123;-52
2023/12/12 09:32:44;;;;;;;107.55;34.08;;;6.80;99.90;;;;;;5062800;28;20060;-51
2023/12/12 09:35:10;;;;;;;99.47;34.50;;;6.10;99.90;;;;;;5062228;28;20036;-49
2023/12/12 09:37:36;;;;;;;109.43;35.20;;;6.10;99.90;;;;;;5064224;28;20439;-52
2023/12/12 09:40:04;;;;;;;96.32;33.63;;;6.40;99.90;;;;;;5064391;28;20045;-51
2023/12/12 09:42:34;;;;;;;98.97;33.70;;;6.10;99.90;;;;;;5062331;28;20041;-50
2023/12/12 09:45:03;;;;;;;103.22;32.00;;;6.40;99.90;;;;;;5061425;28;20098;-52
2023/12/12 09:47:30;;;;;;;103.28;32.30;;;7.00;99.90;;;;;;5064096;28;20039;-49
2023/12/12 09:50:00;;;;;;;101.38;32.47;;;7.00;99.90;;;;;;5062765;28;20446;-51
2023/12/12 09:52:28;;;;;;;93.15;30.85;;;6.60;99.90;;;;;;5061729;28;20043;-50
2023/12/12 09:54:56;;;;;;;92.85;30.60;;;6.80;99.90;;;;;;5061846;28;20045;-50
2023/12/12 09:57:22;;;;;;;90.80;30.95;;;6.10;99.90;;;;;;5062729;28;20047;-48
2023/12/12 09:59:48;;;;;;;97.30;31.75;;;6.60;99.90;;;;;;5064525;28;21016;-49
2023/12/12 10:02:19;;;;;;;85.85;30.77;;;6.50;99.90;;;;;;5044508;28;20136;-50
2023/12/12 10:04:45;;;;;;;82.07;29.58;;;7.10;99.90;;;;;;5061882;28;20041;-50
2023/12/12 10:07:15;;;;;;;93.95;32.08;;;6.60;99.90;;;;;;5063639;28;20063;-52
2023/12/12 10:09:41;;;;;;;83.55;29.67;;;6.50;99.90;;;;;;5062191;28;20061;-52
2023/12/12 10:12:07;;;;;;;88.22;28.73;;;6.80;99.90;;;;;;5060472;28;20045;-48
2023/12/12 10:14:37;;;;;;;91.00;30.13;;;6.50;99.90;;;;;;5062289;28;20037;-53
2023/12/12 10:17:04;;;;;;;97.57;30.20;;;6.70;99.90;;;;;;5062602;28;20102;-52
2023/12/12 10:19:30;;;;;;;94.95;31.67;;;6.70;99.90;;;;;;5061998;28;20431;-51
2023/12/12 10:21:59;;;;;;;97.30;33.05;;;7.60;99.90;;;;;;5062882;28;20086;-52
2023/12/12 10:24:25;;;;;;;92.60;30.05;;;6.80;99.90;;;;;;5062524;28;20032;-53
2023/12/12 10:26:51;;;;;;;101.25;30.23;;;7.80;99.90;;;;;;5062149;28;20513;-53
2023/12/12 10:29:20;;;;;;;92.22;31.92;;;7.80;99.90;;;;;;5062704;28;20071;-52
2023/12/12 10:31:48;;;;;;;94.88;31.65;;;7.30;99.90;;;;;;5062436;28;20406;-52
2023/12/12 10:34:17;;;;;;;111.32;32.67;;;7.30;99.90;;;;;;5061865;28;20094;-50
2023/12/12 10:36:42;;;;;;;100.90;31.48;;;7.30;99.90;;;;;;5061263;28;20090;-52
2023/12/12 10:39:15;;;;;;;91.47;31.88;;;8.00;99.90;;;;;;5061768;28;20391;-50
2023/12/12 10:41:57;;;;;;;106.53;32.80;;;7.30;99.90;;;;;;5057354;28;20024;-49
2023/12/12 10:44:33;;;;;;;93.68;30.92;;;7.50;99.90;;;;;;5059250;28;20494;-54
2023/12/12 10:47:02;;;;;;;101.60;29.42;;;7.40;99.90;;;;;;5060926;28;20041;-53
2023/12/12 10:49:32;;;;;;;87.90;30.90;;;8.10;99.90;;;;;;5060154;28;20507;-51
2023/12/12 10:52:02;;;;;;;96.32;29.27;;;8.10;99.90;;;;;;5057740;28;20036;-50
2023/12/12 10:54:31;;;;;;;86.72;28.25;;;7.50;99.90;;;;;;5060170;28;20111;-49
2023/12/12 10:56:58;;;;;;;90.97;29.27;;;7.50;99.90;;;;;;5062845;28;20090;-51
2023/12/12 10:59:25;;;;;;;89.43;29.85;;;7.90;99.90;;;;;;5062219;28;20103;-49
2023/12/12 11:01:52;;;;;;;92.93;28.00;;;7.60;99.90;;;;;;5062985;28;20506;-54
2023/12/12 11:04:18;;;;;;;94.03;30.60;;;7.50;99.90;;;;;;5063017;28;20048;-52
2023/12/12 11:06:45;;;;;;;97.00;30.35;;;7.60;99.90;;;;;;5061157;28;20032;-50
2023/12/12 11:09:11;;;;;;;92.78;27.98;;;8.00;99.90;;;;;;5061130;28;20102;-50
2023/12/12 11:11:40;;;;;;;85.55;28.98;;;8.10;99.90;;;;;;5063604;28;20044;-50
2023/12/12 11:14:08;;;;;;;79.22;28.38;;;7.70;99.90;;;;;;5061488;28;20040;-49
2023/12/12 11:16:34;;;;;;;94.63;28.48;;;7.50;99.90;;;;;;5061217;28;20037;-54
2023/12/12 11:19:01;;;;;;;86.22;29.10;;;8.30;99.90;;;;;;5060025;28;20060;-51
2023/12/12 11:21:42;;;;;;;94.13;28.98;;;8.00;99.90;;;;;;5056870;28;20064;-53
2023/12/12 11:24:08;;;;;;;90.80;27.45;;;8.30;99.90;;;;;;5058208;28;20043;-48
2023/12/12 11:26:36;;;;;;;94.20;28.45;;;7.60;99.90;;;;;;5058075;28;20032;-50
2023/12/12 11:29:05;;;;;;;78.93;27.40;;;8.40;99.90;;;;;;5059636;28;20062;-52
2023/12/12 11:31:34;;;;;;;80.10;27.40;;;7.60;99.90;;;;;;5057849;28;20036;-50
2023/12/12 11:34:05;;;;;;;77.57;26.27;;;7.60;99.90;;;;;;5059810;28;20041;-52
2023/12/12 11:36:55;;;;;;;88.88;27.45;;;7.80;99.90;;;;;;5057735;28;20025;-52
2023/12/12 11:39:29;;;;;;;78.43;26.67;;;8.50;99.90;;;;;;5057813;28;20056;-51
2023/12/12 11:41:56;;;;;;;85.80;27.55;;;8.40;99.90;;;;;;5054967;28;20076;-52
2023/12/12 11:44:22;;;;;;;91.90;28.83;;;8.30;99.90;;;;;;5056140;28;20048;-52
2023/12/12 11:46:51;;;;;;;95.78;28.00;;;7.90;99.90;;;;;;5056248;28;20036;-53
2023/12/12 11:49:21;;;;;;;88.68;27.05;;;8.60;99.90;;;;;;5055926;28;20044;-54
2023/12/12 11:51:49;;;;;;;78.78;26.98;;;8.40;99.90;;;;;;5053911;28;20476;-51
2023/12/12 11:54:21;;;;;;;87.05;29.65;;;8.00;99.90;;;;;;5055880;28;20067;-51
2023/12/12 11:56:55;;;;;;;92.40;30.05;;;8.60;99.90;;;;;;5067180;28;20041;-49
2023/12/12 11:59:22;;;;;;;;;;;8.00;99.90;;;;;;5056697;28;20041;-49
2023/12/12 12:01:48;;;;;;;89.82;27.98;;;8.10;99.90;;;;;;5056942;28;19924;-51
2023/12/12 12:04:13;;;;;;;94.32;28.55;;;8.10;99.90;;;;;;5058229;28;20040;-51
2023/12/12 12:06:39;;;;;;;98.85;31.30;;;8.40;99.90;;;;;;5054152;28;20033;-50
2023/12/12 12:09:07;;;;;;;92.50;30.48;;;8.40;99.90;;;;;;5053991;28;20047;-53
2023/12/12 12:11:39;;;;;;;111.15;30.02;;;8.50;99.90;;;;;;5058200;28;20036;-51
2023/12/12 12:14:06;;;;;;;98.60;27.95;;;8.70;99.90;;;;;;5056165;28;20120;-50
2023/12/12 12:16:32;;;;;;;87.20;28.75;;;8.90;99.90;;;;;;5056431;28;20032;-50
2023/12/12 12:18:57;;;;;;;100.35;29.10;;;8.90;99.90;;;;;;5055014;28;20362;-50
2023/12/12 12:21:25;;;;;;;101.40;29.77;;;8.20;99.90;;;;;;5055944;28;20075;-52
2023/12/12 12:23:54;;;;;;;95.72;26.90;;;8.20;99.90;;;;;;5056336;28;20029;-50
2023/12/12 12:26:20;;;;;;;92.90;28.05;;;8.20;99.90;;;;;;5057823;28;20482;-52
2023/12/12 12:28:47;;;;;;;83.57;26.55;;;8.30;99.90;;;;;;5059296;28;20093;-52
2023/12/12 12:31:13;;;;;;;86.55;26.85;;;8.70;99.90;;;;;;5060072;28;20111;-50